Hovedside
METAR-TAF:

METAR-TAF

Lufthavner :

Palenque, Mexico

breddegrad: 17-32-06N, lengdegrad: 92-00-54W, høyde over havet: 60 m

Gjeldene værobservasjon

Denne rapporten ble laget for 4 timer og 37 minutter siden, klokken 00:49 UTC
Flau vind
Temperatur 37°C
Luftfuktighet 57%
Trykk 1003 hPa
Sikt: 4.8 km
Brutte skyer i en høyde av 7000 ft
røyk, dis

METAR: MMPQ 270049Z 00000KT 3SM FU HZ BKN070 37/27 A2961 RMK 8/020 MSGTX MMMX

Tid: 00:26 (05:26 UTC)

Varsel

Denne rapporten ble laget for 5 timer og 52 minutter siden, klokken 23:34 UTC
Varsel gyldig fra 27. klokken 00 UTC til 27. klokken 18 UTC
Vind kt fra Nord
Sikt: 4.8 km
Spredte skyer i en høyde av 7000 ft
røyk
Fra 27. klokken 1600 UTC
Vind 6 kt fra Nord-nordøst
Sikt: 8.0 km
Skyfri himmel
dis,

TAF: MMPQ 262334Z 2700/2718 00000KT 3SM FU SCT070 FM271600 03006KT 5SM HZ SKC

Værobservasjoner og værvarsel for over 4000 flyplasser (METAR- og TAF-rapporter).

Tilgjengelige stasjoner er representert av de røde og gule prikkene på kartet.

Hold musepekeren over prikken for å se navnet på stasjonen.

Klikk så for å se værobservasjoner og -varsler.

For å forandre kartet kan du klikke på den grønne knappen med svart kryss for å zoome inn, på den grønne knappen med strek for å zoome ut, eller på de grønne pilene for å se tilstøtende kart.


METAR-TAF: